createdAt,value
2023-02-11T00:02:04.833Z,34.90
2023-02-11T00:07:11.606Z,35.67
2023-02-11T00:09:44.453Z,31.23
2023-02-11T00:12:19.467Z,36.17
2023-02-11T00:17:27.661Z,40.90
2023-02-11T00:20:00.516Z,40.65
2023-02-11T00:22:34.718Z,40.50
2023-02-11T00:25:07.877Z,44.42
2023-02-11T00:27:40.999Z,38.42
2023-02-11T00:30:14.294Z,36.05
2023-02-11T00:32:47.086Z,38.03
2023-02-11T00:35:19.845Z,37.50
2023-02-11T00:37:55.981Z,34.47
2023-02-11T00:40:29.160Z,36.63
2023-02-11T00:43:02.160Z,36.60
2023-02-11T00:45:34.961Z,35.20
2023-02-11T00:48:08.071Z,35.95
2023-02-11T00:50:40.894Z,34.25
2023-02-11T00:53:15.110Z,31.63
2023-02-11T00:55:48.217Z,30.37
2023-02-11T00:58:22.451Z,36.15
2023-02-11T01:00:55.340Z,32.47
2023-02-11T01:03:28.125Z,33.83
2023-02-11T01:06:01.400Z,34.30
2023-02-11T01:08:35.544Z,33.22
2023-02-11T01:11:13.504Z,32.33
2023-02-11T01:13:48.037Z,36.15
2023-02-11T01:16:22.451Z,29.88
2023-02-11T01:18:55.846Z,30.10
2023-02-11T01:21:28.806Z,28.75
2023-02-11T01:24:02.951Z,31.98
2023-02-11T01:26:35.795Z,33.83
2023-02-11T01:29:09.281Z,34.25
2023-02-11T01:31:42.147Z,34.30
2023-02-11T01:34:15.478Z,31.70
2023-02-11T01:36:48.272Z,26.85
2023-02-11T01:39:22.351Z,29.85
2023-02-11T01:41:56.058Z,35.75
2023-02-11T01:44:32.934Z,28.95
2023-02-11T01:47:06.511Z,27.48
2023-02-11T01:49:43.271Z,24.10
2023-02-11T01:52:22.110Z,29.15
2023-02-11T01:55:17.828Z,23.73
2023-02-11T01:57:56.275Z,28.85
2023-02-11T02:00:35.546Z,24.17
2023-02-11T02:06:24.014Z,20.73
2023-02-11T02:09:02.187Z,26.58
2023-02-11T02:11:37.406Z,27.65
2023-02-11T02:14:10.183Z,34.70
2023-02-11T02:16:43.191Z,27.38
2023-02-11T02:19:48.652Z,27.52
2023-02-11T02:22:59.141Z,18.27
2023-02-11T02:25:59.739Z,28.63
2023-02-11T02:28:57.974Z,27.35
2023-02-11T02:31:51.350Z,24.42
2023-02-11T02:34:31.871Z,28.13
2023-02-11T02:37:11.306Z,25.98
2023-02-11T02:39:47.481Z,25.42
2023-02-11T02:42:21.315Z,26.38
2023-02-11T02:44:54.413Z,28.73
2023-02-11T02:47:27.466Z,24.75
2023-02-11T02:50:01.880Z,30.67
2023-02-11T02:52:40.243Z,31.42
2023-02-11T02:55:34.474Z,21.50
2023-02-11T02:58:31.205Z,28.60
2023-02-11T03:01:15.084Z,28.35
2023-02-11T03:03:53.092Z,20.23
2023-02-11T03:06:34.635Z,21.52
2023-02-11T03:09:11.863Z,28.95
2023-02-11T03:11:44.674Z,22.42
2023-02-11T03:14:20.284Z,23.45
2023-02-11T03:16:57.007Z,25.27
2023-02-11T03:19:35.402Z,26.30
2023-02-11T03:22:15.501Z,26.48
2023-02-11T03:24:49.353Z,26.95
2023-02-11T03:27:28.354Z,25.55
2023-02-11T03:30:11.996Z,20.83
2023-02-11T03:32:52.295Z,24.85
2023-02-11T03:35:32.857Z,25.63
2023-02-11T03:38:10.213Z,24.63
2023-02-11T03:40:45.544Z,26.35
2023-02-11T03:43:22.829Z,19.25
2023-02-11T03:45:57.397Z,19.95
2023-02-11T03:48:34.184Z,25.83
2023-02-11T03:51:10.091Z,20.38
2023-02-11T03:53:47.723Z,27.65
2023-02-11T03:56:24.541Z,24.23
2023-02-11T03:58:57.806Z,25.38
2023-02-11T04:01:30.726Z,30.25
2023-02-11T04:04:04.956Z,24.98
2023-02-11T04:06:38.506Z,20.98
2023-02-11T04:09:13.478Z,24.90
2023-02-11T04:14:18.781Z,26.08
2023-02-11T04:16:51.581Z,25.10
2023-02-11T04:19:24.354Z,17.95
2023-02-11T04:21:57.129Z,31.02
2023-02-11T04:24:31.425Z,25.90
2023-02-11T04:27:04.401Z,24.30
2023-02-11T04:29:37.714Z,28.50
2023-02-11T04:32:11.684Z,23.40
2023-02-11T04:34:44.725Z,21.98
2023-02-11T04:37:17.539Z,26.95
2023-02-11T04:39:51.691Z,24.45
2023-02-11T04:42:25.067Z,24.93
2023-02-11T04:44:58.026Z,25.10
2023-02-11T04:47:30.889Z,32.90
2023-02-11T04:50:03.763Z,29.45
2023-02-11T04:52:36.473Z,24.98
2023-02-11T04:55:10.741Z,28.00
2023-02-11T04:57:43.602Z,23.38
2023-02-11T05:00:17.416Z,23.15
2023-02-11T05:02:50.260Z,23.45
2023-02-11T05:05:23.039Z,30.92
2023-02-11T05:07:55.835Z,26.05
2023-02-11T05:10:29.933Z,29.15
2023-02-11T05:13:02.991Z,24.33
2023-02-11T05:15:36.050Z,30.30
2023-02-11T05:18:08.844Z,26.75
2023-02-11T05:20:42.039Z,26.50
2023-02-11T05:23:14.849Z,26.65
2023-02-11T05:25:49.242Z,27.55
2023-02-11T05:28:22.156Z,26.80
2023-02-11T05:30:55.236Z,31.83
2023-02-11T05:33:28.570Z,24.45
2023-02-11T05:36:02.183Z,19.65
2023-02-11T05:38:35.481Z,27.95
2023-02-11T05:41:09.889Z,29.00
2023-02-11T05:43:42.641Z,26.70
2023-02-11T05:46:15.451Z,26.30
2023-02-11T05:48:48.338Z,35.40
2023-02-11T05:51:21.130Z,33.22
2023-02-11T05:53:54.196Z,26.38
2023-02-11T05:56:28.396Z,26.48
2023-02-11T05:59:01.653Z,30.50
2023-02-11T06:01:34.483Z,30.50
2023-02-11T06:04:07.382Z,31.23
2023-02-11T06:06:40.198Z,36.95
2023-02-11T06:09:12.943Z,32.42
2023-02-11T06:11:47.368Z,34.80
2023-02-11T06:14:20.401Z,32.92
2023-02-11T06:16:53.219Z,33.67
2023-02-11T06:19:26.081Z,31.33
2023-02-11T06:21:58.884Z,37.55
2023-02-11T06:24:51.405Z,31.67
2023-02-11T06:27:26.671Z,35.17
2023-02-11T06:29:59.696Z,27.27
2023-02-11T06:32:44.455Z,32.72
2023-02-11T06:35:18.151Z,27.65
2023-02-11T06:37:53.713Z,30.10
2023-02-11T06:40:26.469Z,31.73
2023-02-11T06:43:00.646Z,33.38
2023-02-11T06:45:33.637Z,27.53
2023-02-11T06:48:06.910Z,34.05
2023-02-11T06:50:40.086Z,34.38
2023-02-11T06:53:12.965Z,35.70
2023-02-11T06:55:45.804Z,38.17
2023-02-11T06:58:19.992Z,30.20
2023-02-11T07:00:53.651Z,32.97
2023-02-11T07:03:26.796Z,24.85
2023-02-11T07:05:59.596Z,43.67
2023-02-11T07:08:32.449Z,28.50
2023-02-11T07:11:10.529Z,34.92
2023-02-11T07:13:45.245Z,34.95
2023-02-11T07:16:19.036Z,29.35
2023-02-11T07:18:52.148Z,35.65
2023-02-11T07:21:25.341Z,30.05
2023-02-11T07:23:58.234Z,38.65
2023-02-11T07:26:31.016Z,35.33
2023-02-11T07:29:05.578Z,33.00
2023-02-11T07:31:38.424Z,39.20
2023-02-11T07:34:12.064Z,27.67
2023-02-11T07:36:45.047Z,36.58
2023-02-11T07:39:17.907Z,37.60
2023-02-11T07:41:50.705Z,34.92
2023-02-11T07:44:25.208Z,32.63
2023-02-11T07:46:58.197Z,31.88
2023-02-11T07:49:31.001Z,38.08
2023-02-11T07:52:03.809Z,39.75
2023-02-11T07:54:36.624Z,39.75
2023-02-11T07:57:09.510Z,43.53
2023-02-11T07:59:43.993Z,43.05
2023-02-11T08:02:16.965Z,40.78
2023-02-11T08:04:50.655Z,49.13
2023-02-11T08:07:23.491Z,38.13
2023-02-11T08:09:56.724Z,33.25
2023-02-11T08:12:29.512Z,43.03
2023-02-11T08:15:03.940Z,37.50
2023-02-11T08:17:36.778Z,42.05
2023-02-11T08:20:10.348Z,42.50
2023-02-11T08:22:43.211Z,41.92
2023-02-11T08:25:16.180Z,44.33
2023-02-11T08:27:48.931Z,38.53
2023-02-11T08:30:25.052Z,38.90
2023-02-11T08:32:59.004Z,30.05
2023-02-11T08:35:32.973Z,87.05
2023-02-11T08:38:05.714Z,42.00
2023-02-11T08:40:39.894Z,47.55
2023-02-11T08:43:12.633Z,54.77
2023-02-11T08:45:47.081Z,54.83
2023-02-11T08:48:19.890Z,40.53
2023-02-11T08:50:52.694Z,31.77
2023-02-11T08:53:26.197Z,41.05
2023-02-11T08:55:59.284Z,41.53
2023-02-11T08:58:32.054Z,44.35
2023-02-11T09:01:11.452Z,40.25
2023-02-11T09:03:44.372Z,32.63
2023-02-11T09:06:18.575Z,49.00
2023-02-11T09:08:53.903Z,44.00
2023-02-11T09:11:29.446Z,40.78
2023-02-11T09:14:03.235Z,39.75
2023-02-11T09:16:37.618Z,49.42
2023-02-11T09:19:10.733Z,40.15
2023-02-11T09:21:43.708Z,45.28
2023-02-11T09:24:16.676Z,42.05
2023-02-11T09:26:50.042Z,36.50
2023-02-11T09:29:22.852Z,45.97
2023-02-11T09:31:59.122Z,47.75
2023-02-11T09:34:32.045Z,43.97
2023-02-11T09:37:05.117Z,42.92
2023-02-11T09:39:37.935Z,40.72
2023-02-11T09:42:40.695Z,45.95
2023-02-11T09:45:18.496Z,47.10
2023-02-11T09:47:56.895Z,42.03
2023-02-11T09:50:33.510Z,42.70
2023-02-11T09:53:12.364Z,44.35
2023-02-11T09:55:48.895Z,51.28
2023-02-11T09:58:26.740Z,46.15
2023-02-11T10:01:07.838Z,53.42
2023-02-11T10:03:55.659Z,46.90
2023-02-11T10:06:40.150Z,39.30
2023-02-11T10:09:29.738Z,44.10
2023-02-11T10:12:17.097Z,45.78
2023-02-11T10:15:02.404Z,43.38
2023-02-11T10:20:26.353Z,45.22
2023-02-11T10:23:02.237Z,47.15
2023-02-11T10:25:38.113Z,51.42
2023-02-11T10:28:15.297Z,47.75
2023-02-11T10:30:56.759Z,50.47
2023-02-11T10:33:35.531Z,48.95
2023-02-11T10:36:12.100Z,46.25
2023-02-11T10:38:45.425Z,50.30
2023-02-11T10:41:23.622Z,41.13
2023-02-11T10:43:56.768Z,48.30
2023-02-11T10:46:34.277Z,46.65
2023-02-11T10:49:07.293Z,49.28
2023-02-11T10:51:41.785Z,50.38
2023-02-11T10:54:21.217Z,42.75
2023-02-11T10:57:00.563Z,43.30
2023-02-11T10:59:38.320Z,50.42
2023-02-11T11:02:23.423Z,45.35
2023-02-11T11:04:58.197Z,45.33
2023-02-11T11:07:52.454Z,47.80
2023-02-11T11:10:32.856Z,28.63
2023-02-11T11:13:30.832Z,40.38
2023-02-11T11:16:23.155Z,49.05
2023-02-11T11:19:17.117Z,42.55
2023-02-11T11:21:52.751Z,42.22
2023-02-11T11:24:34.271Z,38.85
2023-02-11T11:27:07.700Z,40.65
2023-02-11T11:29:45.861Z,34.58
2023-02-11T11:32:23.355Z,44.85
2023-02-11T11:34:58.299Z,45.90
2023-02-11T11:40:22.688Z,41.85
2023-02-11T11:43:08.544Z,39.17
2023-02-11T11:45:53.021Z,36.28
2023-02-11T11:48:31.237Z,40.23
2023-02-11T11:54:14.714Z,43.65
2023-02-11T11:57:19.126Z,41.03
2023-02-11T11:59:51.930Z,40.50
2023-02-11T12:02:48.720Z,42.13
2023-02-11T12:05:27.718Z,44.33
2023-02-11T12:08:10.663Z,33.40
2023-02-11T12:11:03.824Z,39.03
2023-02-11T12:13:49.904Z,30.45
2023-02-11T12:16:34.528Z,37.60
2023-02-11T12:22:31.567Z,34.17
2023-02-11T12:25:22.743Z,32.78
2023-02-11T12:28:06.827Z,34.35
2023-02-11T12:31:01.310Z,28.33
2023-02-11T12:33:51.044Z,35.80
2023-02-11T12:36:37.998Z,29.83
2023-02-11T12:39:27.322Z,38.40
2023-02-11T12:45:51.941Z,29.52
2023-02-11T12:51:21.717Z,27.15
2023-02-11T12:54:18.422Z,31.27
2023-02-11T12:56:55.447Z,29.13
2023-02-11T12:59:39.340Z,21.33
2023-02-11T13:02:21.572Z,28.55
2023-02-11T13:04:58.189Z,27.52
2023-02-11T13:14:25.411Z,31.58
2023-02-11T13:17:32.358Z,31.63
2023-02-11T13:20:19.504Z,27.52
2023-02-11T13:23:00.274Z,28.33
2023-02-11T13:25:44.728Z,29.35
2023-02-11T13:28:42.480Z,29.67
2023-02-11T13:31:16.738Z,26.27
2023-02-11T13:33:50.450Z,27.75
2023-02-11T13:36:28.615Z,32.70
2023-02-11T13:39:39.865Z,24.95
2023-02-11T13:42:18.222Z,28.73
2023-02-11T13:44:52.257Z,25.58
2023-02-11T13:50:27.357Z,27.92
2023-02-11T13:53:06.177Z,30.90
2023-02-11T13:55:43.137Z,30.08
2023-02-11T14:07:46.232Z,36.35
2023-02-11T14:10:52.405Z,36.15
2023-02-11T14:13:26.820Z,32.20
2023-02-11T14:16:08.945Z,38.38
2023-02-11T14:22:03.458Z,30.88
2023-02-11T14:27:57.023Z,32.85
2023-02-11T14:30:47.131Z,33.95
2023-02-11T14:36:44.474Z,39.42
2023-02-11T14:39:26.770Z,37.95
2023-02-11T14:42:03.572Z,36.70
2023-02-11T14:44:37.940Z,38.08
2023-02-11T14:47:18.488Z,38.17
2023-02-11T14:49:51.590Z,29.67
2023-02-11T14:55:57.475Z,37.90
2023-02-11T14:58:32.045Z,41.28
2023-02-11T15:01:23.494Z,39.28
2023-02-11T15:03:58.178Z,37.67
2023-02-11T15:06:33.375Z,35.92
2023-02-11T15:09:14.541Z,35.15
2023-02-11T15:11:49.881Z,31.70
2023-02-11T15:14:26.648Z,39.13
2023-02-11T15:17:05.346Z,35.13
2023-02-11T15:19:42.009Z,33.80
2023-02-11T15:22:20.235Z,34.78
2023-02-11T15:25:00.760Z,35.17
2023-02-11T15:27:40.357Z,32.30
2023-02-11T15:30:26.690Z,32.90
2023-02-11T15:33:05.716Z,33.97
2023-02-11T15:35:42.268Z,29.88
2023-02-11T15:38:15.373Z,33.25
2023-02-11T15:40:56.717Z,31.10
2023-02-11T15:43:42.974Z,33.00
2023-02-11T15:46:19.709Z,25.92
2023-02-11T15:48:56.586Z,32.78
2023-02-11T15:51:32.873Z,25.10
2023-02-11T15:54:08.815Z,24.65
2023-02-11T15:56:44.713Z,33.20
2023-02-11T15:59:21.752Z,29.88
2023-02-11T16:01:55.956Z,25.77
2023-02-11T16:04:30.216Z,24.35
2023-02-11T16:07:03.146Z,32.85
2023-02-11T16:09:37.632Z,30.60
2023-02-11T16:12:27.003Z,29.90
2023-02-11T16:15:03.768Z,31.58
2023-02-11T16:17:37.177Z,31.75
2023-02-11T16:20:20.437Z,28.45
2023-02-11T16:26:01.316Z,32.03
2023-02-11T16:28:34.769Z,27.67
2023-02-11T16:31:09.554Z,28.88
2023-02-11T16:36:29.382Z,26.83
2023-02-11T16:39:04.037Z,29.38
2023-02-11T16:41:36.812Z,31.83
2023-02-11T16:44:09.791Z,25.38
2023-02-11T16:46:42.846Z,25.85
2023-02-11T16:49:19.197Z,24.48
2023-02-11T16:51:57.335Z,28.13
2023-02-11T16:54:32.266Z,34.08
2023-02-11T16:57:10.202Z,37.35
2023-02-11T16:59:43.246Z,32.30
2023-02-11T17:02:21.191Z,31.33
2023-02-11T17:04:59.179Z,31.60
2023-02-11T17:07:32.511Z,32.53
2023-02-11T17:10:15.139Z,30.50
2023-02-11T17:12:48.892Z,29.98
2023-02-11T17:15:21.723Z,32.08
2023-02-11T17:17:54.487Z,34.00
2023-02-11T17:20:27.781Z,38.53
2023-02-11T17:23:00.665Z,40.75
2023-02-11T17:25:37.152Z,35.33
2023-02-11T17:28:12.020Z,39.47
2023-02-11T17:33:18.808Z,30.35
2023-02-11T17:35:52.015Z,29.77
2023-02-11T17:38:24.986Z,33.25
2023-02-11T17:41:00.373Z,31.27
2023-02-11T17:43:33.294Z,28.35
2023-02-11T17:46:10.670Z,31.75
2023-02-11T17:48:43.513Z,37.05
2023-02-11T17:51:24.100Z,31.67
2023-02-11T17:53:58.579Z,40.90
2023-02-11T17:56:35.801Z,32.17
2023-02-11T17:59:11.106Z,37.63
2023-02-11T18:01:44.627Z,39.35
2023-02-11T18:04:19.978Z,36.85
2023-02-11T18:06:53.464Z,34.88
2023-02-11T18:09:27.054Z,38.65
2023-02-11T18:12:01.182Z,38.40
2023-02-11T18:14:34.915Z,35.87
2023-02-11T18:17:07.865Z,40.42
2023-02-11T18:19:40.720Z,34.67
2023-02-11T18:22:14.312Z,32.75
2023-02-11T18:24:51.815Z,37.72
2023-02-11T18:27:25.898Z,39.35
2023-02-11T18:29:59.394Z,44.40
2023-02-11T18:32:32.858Z,39.60
2023-02-11T18:35:08.731Z,37.63
2023-02-11T18:37:42.452Z,40.55
2023-02-11T18:40:15.366Z,34.70
2023-02-11T18:42:49.530Z,35.08
2023-02-11T18:45:23.783Z,38.37
2023-02-11T18:47:56.663Z,39.75
2023-02-11T18:50:29.467Z,41.03
2023-02-11T18:53:02.247Z,40.90
2023-02-11T18:55:35.155Z,48.85
2023-02-11T18:58:09.440Z,43.17
2023-02-11T19:00:46.379Z,40.88
2023-02-11T19:03:20.323Z,31.98
2023-02-11T19:05:54.509Z,45.25
2023-02-11T19:08:27.477Z,44.50
2023-02-11T19:11:00.272Z,46.60
2023-02-11T19:13:34.720Z,46.72
2023-02-11T19:16:11.377Z,48.25
2023-02-11T19:18:44.580Z,47.50
2023-02-11T19:21:17.436Z,40.33
2023-02-11T19:23:50.361Z,51.50
2023-02-11T19:26:24.794Z,43.10
2023-02-11T19:28:59.725Z,47.42
2023-02-11T19:34:07.309Z,44.85
2023-02-11T19:36:40.133Z,49.65
2023-02-11T19:39:13.454Z,49.95
2023-02-11T19:41:46.332Z,42.45
2023-02-11T19:44:20.494Z,46.90
2023-02-11T19:46:54.642Z,45.10
2023-02-11T19:49:27.823Z,50.03
2023-02-11T19:52:02.354Z,40.80
2023-02-11T19:54:35.192Z,47.95
2023-02-11T19:57:07.930Z,43.95
2023-02-11T20:09:28.893Z,47.13
2023-02-11T20:12:01.691Z,45.15
2023-02-11T20:14:34.479Z,48.17
2023-02-11T20:17:07.279Z,45.13
2023-02-11T20:19:40.047Z,49.03
2023-02-11T20:25:39.854Z,54.30
2023-02-11T20:28:13.893Z,68.97
2023-02-11T20:30:46.729Z,53.13
2023-02-11T20:33:21.978Z,49.38
2023-02-11T20:35:56.280Z,45.50
2023-02-11T20:38:29.301Z,50.15
2023-02-11T21:00:09.561Z,46.20
2023-02-11T21:02:42.365Z,46.30
2023-02-11T21:05:15.454Z,50.63
2023-02-11T21:07:48.292Z,53.97
2023-02-11T21:10:21.520Z,51.72
2023-02-11T21:12:54.620Z,47.95
2023-02-11T21:15:29.073Z,50.63
2023-02-11T21:18:02.236Z,47.60
2023-02-11T21:20:35.297Z,48.17
2023-02-11T21:23:08.248Z,51.53
2023-02-11T21:25:41.370Z,54.03
2023-02-11T21:28:14.811Z,49.78
2023-02-11T21:30:51.585Z,50.17
2023-02-11T21:33:25.916Z,46.20
2023-02-11T21:35:59.862Z,46.80
2023-02-11T21:38:34.693Z,55.40
2023-02-11T21:41:08.285Z,48.33
2023-02-11T21:43:41.109Z,40.45
2023-02-11T21:46:16.617Z,47.55
2023-02-11T21:48:50.906Z,40.08
2023-02-11T21:51:25.955Z,49.08
2023-02-11T21:54:01.005Z,46.65
2023-02-11T21:59:08.089Z,36.42
2023-02-11T22:01:42.317Z,40.15
2023-02-11T22:04:15.420Z,50.63
2023-02-11T22:06:49.203Z,43.90
2023-02-11T22:09:21.984Z,44.90
2023-02-11T22:11:54.824Z,44.15
2023-02-11T22:14:27.911Z,42.63
2023-02-11T22:17:04.319Z,44.15
2023-02-11T22:19:37.439Z,44.35
2023-02-11T22:22:10.540Z,44.90
2023-02-11T22:24:45.382Z,46.60
2023-02-11T22:27:20.266Z,45.45
2023-02-11T22:29:53.334Z,43.60
2023-02-11T22:32:27.526Z,44.78
2023-02-11T22:35:01.464Z,43.65
2023-02-11T22:37:34.301Z,44.05
2023-02-11T22:40:08.449Z,40.80
2023-02-11T22:42:41.369Z,39.60
2023-02-11T22:45:14.286Z,40.30
2023-02-11T22:47:48.443Z,44.25
2023-02-11T22:50:21.228Z,40.67
2023-02-11T22:52:54.054Z,44.28
2023-02-11T22:55:27.407Z,42.90
2023-02-11T22:58:00.191Z,40.65
2023-02-11T23:00:37.756Z,43.70
2023-02-11T23:03:14.065Z,39.25
2023-02-11T23:05:46.847Z,38.05
2023-02-11T23:08:19.707Z,38.78
2023-02-11T23:10:52.551Z,41.20
2023-02-11T23:13:25.500Z,38.58
2023-02-11T23:15:58.377Z,35.35
2023-02-11T23:18:33.111Z,42.08
2023-02-11T23:21:10.145Z,37.42
2023-02-11T23:23:46.096Z,34.80
2023-02-11T23:26:19.386Z,36.87
2023-02-11T23:28:52.365Z,37.88
2023-02-11T23:31:29.025Z,35.35
2023-02-11T23:34:03.421Z,34.00
2023-02-11T23:36:37.198Z,37.40
2023-02-11T23:39:10.052Z,39.42
2023-02-11T23:41:42.857Z,36.83
2023-02-11T23:44:15.710Z,34.65
2023-02-11T23:46:48.515Z,34.70
2023-02-11T23:49:22.674Z,32.88
2023-02-11T23:51:57.594Z,35.28
2023-02-11T23:57:03.209Z,31.65
2023-02-11T23:59:36.011Z,34.85
